Portada
METAR-TAF:

METAR-TAF

Aeropuertos :

NWS Office

Pohnpei, Micronesia

latitud: 06-58N, longitud: 158-13E, altitud: 39 m

Observación

El informe se hizo hace 54 minutos, a las 05:54 UTC
Viento 4 kt del noreste
Temperatura 30°C
Humedad 79%
Presión 1008 hPa
Visibilidad: 24.1 km
Nubes dispersas a una altura de 1800 ft
Cielo nuboso a una altura de 13000 ft
Cielo cubierto a una altura de 30000 ft

METAR: PTTP 200554Z 05004KT 15SM SCT018 BKN130 OVC300 30/26 A2978 RMK SLP084 8/171 T03000262 10330 20288 55002

Hora: 17:48 (06:48 UTC)


TAF: falta

Observaciones y pronósticos meteorológicos de más de 4000 aeropuertos (mensajes METAR y TAF).

Los puntos amarillos y rojos representan las estaciones disponibles.

Ponga el ratón en el punto deseado para ver el nombre de la estación.

Haga clic para ver las observaciones y los pronósticos meteorológicos.

Para cambiar el mapa : haga clic en los botones verdes con una cruz de color negro para hacer un zoom, en el botón verde con un guión para alejar o en las flechas verdes para mapas adyacentes.


METAR-TAF: